sensor_id;sensor_type;location;lat;lon;timestamp;P1;durP1;ratioP1;P2;durP2;ratioP2
21089;SDS011;10703;51.020;6.128;2022-08-19T00:01:59;53.27;;;38.73;;
21089;SDS011;10703;51.020;6.128;2022-08-19T00:04:28;53.90;;;42.60;;
21089;SDS011;10703;51.020;6.128;2022-08-19T00:06:56;54.23;;;41.43;;
21089;SDS011;10703;51.020;6.128;2022-08-19T00:09:24;55.73;;;42.30;;
21089;SDS011;10703;51.020;6.128;2022-08-19T00:11:51;58.07;;;44.47;;
21089;SDS011;10703;51.020;6.128;2022-08-19T00:14:21;59.00;;;46.13;;
21089;SDS011;10703;51.020;6.128;2022-08-19T00:16:50;58.07;;;45.33;;
21089;SDS011;10703;51.020;6.128;2022-08-19T00:19:20;63.80;;;47.73;;
21089;SDS011;10703;51.020;6.128;2022-08-19T00:21:47;63.37;;;46.90;;
21089;SDS011;10703;51.020;6.128;2022-08-19T00:24:14;64.93;;;47.90;;
21089;SDS011;10703;51.020;6.128;2022-08-19T00:26:42;67.53;;;50.43;;
21089;SDS011;10703;51.020;6.128;2022-08-19T00:29:10;67.70;;;49.97;;
21089;SDS011;10703;51.020;6.128;2022-08-19T00:31:38;70.10;;;50.77;;
21089;SDS011;10703;51.020;6.128;2022-08-19T00:34:07;72.20;;;51.43;;
21089;SDS011;10703;51.020;6.128;2022-08-19T00:36:34;71.27;;;50.50;;
21089;SDS011;10703;51.020;6.128;2022-08-19T00:39:01;75.50;;;52.67;;
21089;SDS011;10703;51.020;6.128;2022-08-19T00:41:28;84.90;;;55.83;;
21089;SDS011;10703;51.020;6.128;2022-08-19T00:44:06;76.70;;;52.90;;
21089;SDS011;10703;51.020;6.128;2022-08-19T00:46:34;80.73;;;57.60;;
21089;SDS011;10703;51.020;6.128;2022-08-19T00:49:11;87.20;;;58.77;;
21089;SDS011;10703;51.020;6.128;2022-08-19T00:51:42;89.90;;;59.03;;
21089;SDS011;10703;51.020;6.128;2022-08-19T00:54:12;97.00;;;60.00;;
21089;SDS011;10703;51.020;6.128;2022-08-19T00:56:39;91.90;;;60.33;;
21089;SDS011;10703;51.020;6.128;2022-08-19T00:59:07;90.27;;;60.07;;
21089;SDS011;10703;51.020;6.128;2022-08-19T01:01:38;102.93;;;60.80;;
21089;SDS011;10703;51.020;6.128;2022-08-19T01:04:07;97.73;;;62.20;;
21089;SDS011;10703;51.020;6.128;2022-08-19T01:06:38;98.70;;;62.30;;
21089;SDS011;10703;51.020;6.128;2022-08-19T01:09:07;97.83;;;62.17;;
21089;SDS011;10703;51.020;6.128;2022-08-19T01:11:36;102.90;;;64.73;;
21089;SDS011;10703;51.020;6.128;2022-08-19T01:14:06;103.30;;;65.03;;
21089;SDS011;10703;51.020;6.128;2022-08-19T01:16:34;102.03;;;62.80;;
21089;SDS011;10703;51.020;6.128;2022-08-19T01:19:02;99.53;;;64.33;;
21089;SDS011;10703;51.020;6.128;2022-08-19T01:21:50;101.67;;;65.33;;
21089;SDS011;10703;51.020;6.128;2022-08-19T01:24:29;101.90;;;63.77;;
21089;SDS011;10703;51.020;6.128;2022-08-19T01:26:56;104.77;;;64.03;;
21089;SDS011;10703;51.020;6.128;2022-08-19T01:29:24;108.10;;;63.40;;
21089;SDS011;10703;51.020;6.128;2022-08-19T01:31:51;108.20;;;65.60;;
21089;SDS011;10703;51.020;6.128;2022-08-19T01:34:19;120.20;;;68.10;;
21089;SDS011;10703;51.020;6.128;2022-08-19T01:36:46;110.30;;;67.53;;
21089;SDS011;10703;51.020;6.128;2022-08-19T01:39:24;120.67;;;70.00;;
21089;SDS011;10703;51.020;6.128;2022-08-19T01:41:51;119.23;;;67.63;;
21089;SDS011;10703;51.020;6.128;2022-08-19T01:44:20;121.90;;;69.77;;
21089;SDS011;10703;51.020;6.128;2022-08-19T01:46:50;119.37;;;68.97;;
21089;SDS011;10703;51.020;6.128;2022-08-19T01:49:17;126.33;;;69.20;;
21089;SDS011;10703;51.020;6.128;2022-08-19T01:51:47;126.60;;;71.40;;
21089;SDS011;10703;51.020;6.128;2022-08-19T01:54:14;122.57;;;68.77;;
21089;SDS011;10703;51.020;6.128;2022-08-19T01:56:53;131.57;;;70.27;;
21089;SDS011;10703;51.020;6.128;2022-08-19T01:59:26;125.47;;;70.37;;
21089;SDS011;10703;51.020;6.128;2022-08-19T02:01:53;119.63;;;69.90;;
21089;SDS011;10703;51.020;6.128;2022-08-19T02:04:20;116.47;;;67.00;;
21089;SDS011;10703;51.020;6.128;2022-08-19T02:06:47;110.27;;;65.33;;
21089;SDS011;10703;51.020;6.128;2022-08-19T02:09:14;114.90;;;64.73;;
21089;SDS011;10703;51.020;6.128;2022-08-19T02:11:41;112.17;;;65.37;;
21089;SDS011;10703;51.020;6.128;2022-08-19T02:14:08;112.57;;;62.50;;
21089;SDS011;10703;51.020;6.128;2022-08-19T02:16:35;107.93;;;63.00;;
21089;SDS011;10703;51.020;6.128;2022-08-19T02:19:03;108.57;;;62.37;;
21089;SDS011;10703;51.020;6.128;2022-08-19T02:21:30;105.17;;;62.30;;
21089;SDS011;10703;51.020;6.128;2022-08-19T02:23:57;114.53;;;63.13;;
21089;SDS011;10703;51.020;6.128;2022-08-19T02:26:24;110.13;;;63.43;;
21089;SDS011;10703;51.020;6.128;2022-08-19T02:28:52;107.07;;;61.57;;
21089;SDS011;10703;51.020;6.128;2022-08-19T02:31:21;108.07;;;61.10;;
21089;SDS011;10703;51.020;6.128;2022-08-19T02:33:50;106.27;;;60.43;;
21089;SDS011;10703;51.020;6.128;2022-08-19T02:36:22;102.13;;;60.00;;
21089;SDS011;10703;51.020;6.128;2022-08-19T02:38:50;101.03;;;58.20;;
21089;SDS011;10703;51.020;6.128;2022-08-19T02:41:22;98.30;;;59.27;;
21089;SDS011;10703;51.020;6.128;2022-08-19T02:43:52;102.17;;;60.07;;
21089;SDS011;10703;51.020;6.128;2022-08-19T02:46:40;91.57;;;58.00;;
21089;SDS011;10703;51.020;6.128;2022-08-19T02:49:07;93.47;;;58.33;;
21089;SDS011;10703;51.020;6.128;2022-08-19T02:51:35;97.33;;;60.23;;
21089;SDS011;10703;51.020;6.128;2022-08-19T02:54:04;97.53;;;58.93;;
21089;SDS011;10703;51.020;6.128;2022-08-19T02:56:34;100.40;;;59.73;;
21089;SDS011;10703;51.020;6.128;2022-08-19T02:59:02;96.50;;;59.20;;
21089;SDS011;10703;51.020;6.128;2022-08-19T03:01:37;100.97;;;59.73;;
21089;SDS011;10703;51.020;6.128;2022-08-19T03:04:06;102.40;;;60.33;;
21089;SDS011;10703;51.020;6.128;2022-08-19T03:06:35;93.93;;;58.17;;
21089;SDS011;10703;51.020;6.128;2022-08-19T03:09:06;105.87;;;60.27;;
21089;SDS011;10703;51.020;6.128;2022-08-19T03:11:34;102.03;;;59.23;;
21089;SDS011;10703;51.020;6.128;2022-08-19T03:14:01;99.23;;;58.83;;
21089;SDS011;10703;51.020;6.128;2022-08-19T03:16:29;96.37;;;57.93;;
21089;SDS011;10703;51.020;6.128;2022-08-19T03:19:05;89.57;;;56.00;;
21089;SDS011;10703;51.020;6.128;2022-08-19T03:21:33;90.33;;;55.30;;
21089;SDS011;10703;51.020;6.128;2022-08-19T03:24:01;88.33;;;56.00;;
21089;SDS011;10703;51.020;6.128;2022-08-19T03:26:31;91.93;;;56.97;;
21089;SDS011;10703;51.020;6.128;2022-08-19T03:29:00;93.17;;;57.97;;
21089;SDS011;10703;51.020;6.128;2022-08-19T03:31:30;94.83;;;58.10;;
21089;SDS011;10703;51.020;6.128;2022-08-19T03:34:18;92.83;;;57.33;;
21089;SDS011;10703;51.020;6.128;2022-08-19T03:36:54;102.10;;;60.23;;
21089;SDS011;10703;51.020;6.128;2022-08-19T03:39:22;107.97;;;62.07;;
21089;SDS011;10703;51.020;6.128;2022-08-19T03:41:53;107.47;;;64.60;;
21089;SDS011;10703;51.020;6.128;2022-08-19T03:44:42;110.50;;;62.63;;
21089;SDS011;10703;51.020;6.128;2022-08-19T03:47:10;108.10;;;64.20;;
21089;SDS011;10703;51.020;6.128;2022-08-19T03:49:42;107.17;;;63.90;;
21089;SDS011;10703;51.020;6.128;2022-08-19T03:52:09;110.77;;;64.80;;
21089;SDS011;10703;51.020;6.128;2022-08-19T03:54:35;110.97;;;65.53;;
21089;SDS011;10703;51.020;6.128;2022-08-19T03:57:04;110.60;;;66.70;;
21089;SDS011;10703;51.020;6.128;2022-08-19T03:59:33;113.90;;;63.63;;
21089;SDS011;10703;51.020;6.128;2022-08-19T04:02:03;112.50;;;64.40;;
21089;SDS011;10703;51.020;6.128;2022-08-19T04:04:35;112.43;;;64.87;;
21089;SDS011;10703;51.020;6.128;2022-08-19T04:07:04;107.73;;;63.07;;
21089;SDS011;10703;51.020;6.128;2022-08-19T04:09:30;111.73;;;63.57;;
21089;SDS011;10703;51.020;6.128;2022-08-19T04:11:59;109.93;;;64.27;;
21089;SDS011;10703;51.020;6.128;2022-08-19T04:14:27;119.17;;;66.43;;
21089;SDS011;10703;51.020;6.128;2022-08-19T04:16:58;127.67;;;69.30;;
21089;SDS011;10703;51.020;6.128;2022-08-19T04:19:26;112.53;;;65.37;;
21089;SDS011;10703;51.020;6.128;2022-08-19T04:21:55;122.20;;;66.40;;
21089;SDS011;10703;51.020;6.128;2022-08-19T04:24:22;122.00;;;66.67;;
21089;SDS011;10703;51.020;6.128;2022-08-19T04:26:49;124.53;;;69.70;;
21089;SDS011;10703;51.020;6.128;2022-08-19T04:29:21;127.57;;;70.23;;
21089;SDS011;10703;51.020;6.128;2022-08-19T04:31:51;129.07;;;69.37;;
21089;SDS011;10703;51.020;6.128;2022-08-19T04:34:19;131.60;;;70.27;;
21089;SDS011;10703;51.020;6.128;2022-08-19T04:36:48;133.73;;;71.23;;
21089;SDS011;10703;51.020;6.128;2022-08-19T04:39:19;135.40;;;70.07;;
21089;SDS011;10703;51.020;6.128;2022-08-19T04:41:48;142.03;;;69.93;;
21089;SDS011;10703;51.020;6.128;2022-08-19T04:44:34;149.00;;;73.10;;
21089;SDS011;10703;51.020;6.128;2022-08-19T04:47:11;148.87;;;75.53;;
21089;SDS011;10703;51.020;6.128;2022-08-19T04:49:37;145.73;;;74.40;;
21089;SDS011;10703;51.020;6.128;2022-08-19T04:52:04;150.97;;;74.37;;
21089;SDS011;10703;51.020;6.128;2022-08-19T04:54:31;159.90;;;78.37;;
21089;SDS011;10703;51.020;6.128;2022-08-19T04:57:04;153.13;;;77.37;;
21089;SDS011;10703;51.020;6.128;2022-08-19T04:59:34;156.43;;;77.07;;
21089;SDS011;10703;51.020;6.128;2022-08-19T05:02:01;153.97;;;76.20;;
21089;SDS011;10703;51.020;6.128;2022-08-19T05:04:29;166.77;;;77.13;;
21089;SDS011;10703;51.020;6.128;2022-08-19T05:06:59;165.83;;;80.00;;
21089;SDS011;10703;51.020;6.128;2022-08-19T05:09:28;159.27;;;78.73;;
21089;SDS011;10703;51.020;6.128;2022-08-19T05:12:15;159.23;;;76.20;;
21089;SDS011;10703;51.020;6.128;2022-08-19T05:14:43;157.00;;;76.20;;
21089;SDS011;10703;51.020;6.128;2022-08-19T05:17:11;156.17;;;78.60;;
21089;SDS011;10703;51.020;6.128;2022-08-19T05:19:59;156.10;;;76.20;;
21089;SDS011;10703;51.020;6.128;2022-08-19T05:22:45;171.20;;;77.77;;
21089;SDS011;10703;51.020;6.128;2022-08-19T05:25:14;155.50;;;75.87;;
21089;SDS011;10703;51.020;6.128;2022-08-19T05:27:45;157.43;;;76.27;;
21089;SDS011;10703;51.020;6.128;2022-08-19T05:30:13;161.80;;;76.50;;
21089;SDS011;10703;51.020;6.128;2022-08-19T05:32:39;160.30;;;74.63;;
21089;SDS011;10703;51.020;6.128;2022-08-19T05:35:06;156.67;;;76.97;;
21089;SDS011;10703;51.020;6.128;2022-08-19T05:37:33;156.53;;;76.13;;
21089;SDS011;10703;51.020;6.128;2022-08-19T05:40:00;169.57;;;74.37;;
21089;SDS011;10703;51.020;6.128;2022-08-19T05:42:27;159.00;;;76.17;;
21089;SDS011;10703;51.020;6.128;2022-08-19T05:44:54;159.07;;;74.27;;
21089;SDS011;10703;51.020;6.128;2022-08-19T05:47:22;163.60;;;73.83;;
21089;SDS011;10703;51.020;6.128;2022-08-19T05:49:49;153.10;;;72.27;;
21089;SDS011;10703;51.020;6.128;2022-08-19T05:52:16;164.03;;;74.67;;
21089;SDS011;10703;51.020;6.128;2022-08-19T05:54:44;152.93;;;70.73;;
21089;SDS011;10703;51.020;6.128;2022-08-19T05:57:17;148.27;;;69.07;;
21089;SDS011;10703;51.020;6.128;2022-08-19T05:59:44;161.97;;;72.90;;
21089;SDS011;10703;51.020;6.128;2022-08-19T06:02:23;149.93;;;69.63;;
21089;SDS011;10703;51.020;6.128;2022-08-19T06:04:49;150.33;;;70.33;;
21089;SDS011;10703;51.020;6.128;2022-08-19T06:07:16;148.43;;;70.17;;
21089;SDS011;10703;51.020;6.128;2022-08-19T06:09:43;138.93;;;66.30;;
21089;SDS011;10703;51.020;6.128;2022-08-19T06:12:26;129.47;;;65.57;;
21089;SDS011;10703;51.020;6.128;2022-08-19T06:14:58;123.87;;;63.70;;
21089;SDS011;10703;51.020;6.128;2022-08-19T06:17:28;127.83;;;64.53;;
21089;SDS011;10703;51.020;6.128;2022-08-19T06:19:57;124.73;;;64.30;;
21089;SDS011;10703;51.020;6.128;2022-08-19T06:22:24;127.67;;;62.67;;
21089;SDS011;10703;51.020;6.128;2022-08-19T06:24:51;124.23;;;63.50;;
21089;SDS011;10703;51.020;6.128;2022-08-19T06:27:19;116.03;;;61.17;;
21089;SDS011;10703;51.020;6.128;2022-08-19T06:29:46;97.40;;;54.70;;
21089;SDS011;10703;51.020;6.128;2022-08-19T06:32:14;98.83;;;55.67;;
21089;SDS011;10703;51.020;6.128;2022-08-19T06:34:42;94.03;;;50.53;;
21089;SDS011;10703;51.020;6.128;2022-08-19T06:37:10;90.57;;;52.70;;
21089;SDS011;10703;51.020;6.128;2022-08-19T06:39:38;79.07;;;49.47;;
21089;SDS011;10703;51.020;6.128;2022-08-19T06:42:07;79.37;;;46.43;;
21089;SDS011;10703;51.020;6.128;2022-08-19T06:44:38;75.30;;;45.93;;
21089;SDS011;10703;51.020;6.128;2022-08-19T06:47:09;71.40;;;44.67;;
21089;SDS011;10703;51.020;6.128;2022-08-19T06:49:50;72.83;;;44.63;;
21089;SDS011;10703;51.020;6.128;2022-08-19T06:52:18;67.80;;;42.17;;
21089;SDS011;10703;51.020;6.128;2022-08-19T06:54:45;55.17;;;34.87;;
21089;SDS011;10703;51.020;6.128;2022-08-19T06:57:25;52.10;;;33.30;;
21089;SDS011;10703;51.020;6.128;2022-08-19T06:59:55;53.83;;;34.00;;
21089;SDS011;10703;51.020;6.128;2022-08-19T07:02:22;44.20;;;28.93;;
21089;SDS011;10703;51.020;6.128;2022-08-19T07:04:52;49.40;;;31.97;;
21089;SDS011;10703;51.020;6.128;2022-08-19T07:07:20;39.40;;;27.33;;
21089;SDS011;10703;51.020;6.128;2022-08-19T07:09:48;36.37;;;24.03;;
21089;SDS011;10703;51.020;6.128;2022-08-19T07:12:25;37.33;;;23.57;;
21089;SDS011;10703;51.020;6.128;2022-08-19T07:14:57;38.83;;;25.17;;
21089;SDS011;10703;51.020;6.128;2022-08-19T07:17:24;38.33;;;23.03;;
21089;SDS011;10703;51.020;6.128;2022-08-19T07:19:52;30.83;;;23.47;;
21089;SDS011;10703;51.020;6.128;2022-08-19T07:22:20;37.47;;;25.90;;
21089;SDS011;10703;51.020;6.128;2022-08-19T07:24:49;37.40;;;25.23;;
21089;SDS011;10703;51.020;6.128;2022-08-19T07:27:17;35.77;;;24.23;;
21089;SDS011;10703;51.020;6.128;2022-08-19T07:29:50;32.30;;;22.00;;
21089;SDS011;10703;51.020;6.128;2022-08-19T07:32:23;31.20;;;21.33;;
21089;SDS011;10703;51.020;6.128;2022-08-19T07:34:52;29.27;;;20.27;;
21089;SDS011;10703;51.020;6.128;2022-08-19T07:37:21;35.03;;;22.70;;
21089;SDS011;10703;51.020;6.128;2022-08-19T07:39:49;32.17;;;21.27;;
21089;SDS011;10703;51.020;6.128;2022-08-19T07:42:16;34.47;;;23.27;;
21089;SDS011;10703;51.020;6.128;2022-08-19T07:44:43;30.93;;;22.47;;
21089;SDS011;10703;51.020;6.128;2022-08-19T07:47:15;34.63;;;23.30;;
21089;SDS011;10703;51.020;6.128;2022-08-19T07:50:03;32.00;;;22.37;;
21089;SDS011;10703;51.020;6.128;2022-08-19T07:52:32;30.13;;;22.63;;
21089;SDS011;10703;51.020;6.128;2022-08-19T07:55:00;35.80;;;24.60;;
21089;SDS011;10703;51.020;6.128;2022-08-19T07:57:29;38.13;;;25.10;;
21089;SDS011;10703;51.020;6.128;2022-08-19T07:59:56;35.23;;;25.83;;
21089;SDS011;10703;51.020;6.128;2022-08-19T08:02:23;40.87;;;27.40;;
21089;SDS011;10703;51.020;6.128;2022-08-19T08:04:50;36.93;;;26.80;;
21089;SDS011;10703;51.020;6.128;2022-08-19T08:07:35;38.50;;;25.60;;
21089;SDS011;10703;51.020;6.128;2022-08-19T08:10:20;32.77;;;22.07;;
21089;SDS011;10703;51.020;6.128;2022-08-19T08:12:50;33.87;;;24.13;;
21089;SDS011;10703;51.020;6.128;2022-08-19T08:15:37;31.77;;;23.63;;
21089;SDS011;10703;51.020;6.128;2022-08-19T08:18:09;37.63;;;24.87;;
21089;SDS011;10703;51.020;6.128;2022-08-19T08:20:37;34.80;;;23.57;;
21089;SDS011;10703;51.020;6.128;2022-08-19T08:23:04;35.80;;;24.30;;
21089;SDS011;10703;51.020;6.128;2022-08-19T08:25:53;28.10;;;19.30;;
21089;SDS011;10703;51.020;6.128;2022-08-19T08:28:23;31.23;;;20.40;;
21089;SDS011;10703;51.020;6.128;2022-08-19T08:30:51;31.43;;;20.07;;
21089;SDS011;10703;51.020;6.128;2022-08-19T08:33:19;24.90;;;18.37;;
21089;SDS011;10703;51.020;6.128;2022-08-19T08:36:06;27.60;;;20.37;;
21089;SDS011;10703;51.020;6.128;2022-08-19T08:38:34;28.08;;;19.73;;
21089;SDS011;10703;51.020;6.128;2022-08-19T08:43:56;18.80;;;14.23;;
21089;SDS011;10703;51.020;6.128;2022-08-19T08:46:58;23.27;;;15.98;;
21089;SDS011;10703;51.020;6.128;2022-08-19T08:52:35;21.80;;;17.38;;
21089;SDS011;10703;51.020;6.128;2022-08-19T08:55:11;24.30;;;16.25;;
21089;SDS011;10703;51.020;6.128;2022-08-19T09:00:19;20.40;;;14.75;;
21089;SDS011;10703;51.020;6.128;2022-08-19T09:02:48;23.83;;;14.07;;
21089;SDS011;10703;51.020;6.128;2022-08-19T09:05:17;18.58;;;13.50;;
21089;SDS011;10703;51.020;6.128;2022-08-19T09:10:39;16.45;;;12.25;;
21089;SDS011;10703;51.020;6.128;2022-08-19T09:15:44;16.75;;;12.05;;
21089;SDS011;10703;51.020;6.128;2022-08-19T09:18:15;16.33;;;12.32;;
21089;SDS011;10703;51.020;6.128;2022-08-19T09:20:44;18.13;;;12.40;;
21089;SDS011;10703;51.020;6.128;2022-08-19T09:23:13;13.55;;;10.68;;
21089;SDS011;10703;51.020;6.128;2022-08-19T09:25:41;13.38;;;10.82;;
21089;SDS011;10703;51.020;6.128;2022-08-19T09:28:08;17.55;;;11.77;;
21089;SDS011;10703;51.020;6.128;2022-08-19T09:30:47;15.07;;;11.85;;
21089;SDS011;10703;51.020;6.128;2022-08-19T09:33:18;19.80;;;11.30;;
21089;SDS011;10703;51.020;6.128;2022-08-19T09:35:45;14.45;;;10.77;;
21089;SDS011;10703;51.020;6.128;2022-08-19T09:38:19;18.15;;;10.80;;
21089;SDS011;10703;51.020;6.128;2022-08-19T09:40:46;20.15;;;12.68;;
21089;SDS011;10703;51.020;6.128;2022-08-19T09:43:13;14.23;;;9.90;;
21089;SDS011;10703;51.020;6.128;2022-08-19T09:46:01;18.70;;;10.73;;
21089;SDS011;10703;51.020;6.128;2022-08-19T09:48:28;18.48;;;11.95;;
21089;SDS011;10703;51.020;6.128;2022-08-19T09:51:01;15.00;;;10.43;;
21089;SDS011;10703;51.020;6.128;2022-08-19T09:53:30;18.05;;;12.30;;
21089;SDS011;10703;51.020;6.128;2022-08-19T09:55:59;18.95;;;12.57;;
21089;SDS011;10703;51.020;6.128;2022-08-19T09:58:29;22.25;;;14.35;;
21089;SDS011;10703;51.020;6.128;2022-08-19T10:00:57;20.23;;;13.07;;
21089;SDS011;10703;51.020;6.128;2022-08-19T10:03:25;22.27;;;14.25;;
21089;SDS011;10703;51.020;6.128;2022-08-19T10:05:56;23.25;;;16.58;;
21089;SDS011;10703;51.020;6.128;2022-08-19T10:08:28;25.55;;;15.98;;
21089;SDS011;10703;51.020;6.128;2022-08-19T10:10:59;19.23;;;11.75;;
21089;SDS011;10703;51.020;6.128;2022-08-19T10:13:47;19.23;;;14.43;;
21089;SDS011;10703;51.020;6.128;2022-08-19T10:16:15;19.48;;;13.15;;
21089;SDS011;10703;51.020;6.128;2022-08-19T10:18:46;18.58;;;12.18;;
21089;SDS011;10703;51.020;6.128;2022-08-19T10:23:44;19.60;;;12.93;;
21089;SDS011;10703;51.020;6.128;2022-08-19T10:26:15;17.23;;;11.27;;
21089;SDS011;10703;51.020;6.128;2022-08-19T10:28:44;22.38;;;13.77;;
21089;SDS011;10703;51.020;6.128;2022-08-19T10:31:14;16.83;;;12.38;;
21089;SDS011;10703;51.020;6.128;2022-08-19T10:34:05;19.05;;;13.82;;
21089;SDS011;10703;51.020;6.128;2022-08-19T10:36:34;18.60;;;13.23;;
21089;SDS011;10703;51.020;6.128;2022-08-19T10:39:20;16.48;;;13.05;;
21089;SDS011;10703;51.020;6.128;2022-08-19T10:41:48;19.60;;;12.80;;
21089;SDS011;10703;51.020;6.128;2022-08-19T10:44:15;18.02;;;13.45;;
21089;SDS011;10703;51.020;6.128;2022-08-19T10:46:44;18.83;;;13.32;;
21089;SDS011;10703;51.020;6.128;2022-08-19T10:49:15;20.27;;;13.23;;
21089;SDS011;10703;51.020;6.128;2022-08-19T10:51:42;18.13;;;12.18;;
21089;SDS011;10703;51.020;6.128;2022-08-19T10:54:27;18.55;;;13.18;;
21089;SDS011;10703;51.020;6.128;2022-08-19T10:57:14;17.15;;;12.90;;
21089;SDS011;10703;51.020;6.128;2022-08-19T10:59:41;15.57;;;12.23;;
21089;SDS011;10703;51.020;6.128;2022-08-19T11:02:09;14.93;;;12.15;;
21089;SDS011;10703;51.020;6.128;2022-08-19T11:04:38;15.30;;;11.65;;
21089;SDS011;10703;51.020;6.128;2022-08-19T11:07:07;17.83;;;11.50;;
21089;SDS011;10703;51.020;6.128;2022-08-19T11:09:38;20.75;;;14.25;;
21089;SDS011;10703;51.020;6.128;2022-08-19T11:12:06;15.80;;;12.52;;
21089;SDS011;10703;51.020;6.128;2022-08-19T11:14:34;18.30;;;12.95;;
21089;SDS011;10703;51.020;6.128;2022-08-19T11:17:03;11.98;;;8.60;;
21089;SDS011;10703;51.020;6.128;2022-08-19T11:19:30;13.57;;;9.32;;
21089;SDS011;10703;51.020;6.128;2022-08-19T11:21:57;14.43;;;10.45;;
21089;SDS011;10703;51.020;6.128;2022-08-19T11:24:29;22.15;;;12.77;;
21089;SDS011;10703;51.020;6.128;2022-08-19T11:27:00;15.93;;;11.90;;
21089;SDS011;10703;51.020;6.128;2022-08-19T11:29:30;13.45;;;8.68;;
21089;SDS011;10703;51.020;6.128;2022-08-19T11:31:58;12.77;;;8.50;;
21089;SDS011;10703;51.020;6.128;2022-08-19T11:34:26;10.85;;;7.43;;
21089;SDS011;10703;51.020;6.128;2022-08-19T11:36:54;12.90;;;9.30;;
21089;SDS011;10703;51.020;6.128;2022-08-19T11:39:27;13.43;;;9.88;;
21089;SDS011;10703;51.020;6.128;2022-08-19T11:41:59;11.38;;;7.00;;
21089;SDS011;10703;51.020;6.128;2022-08-19T11:44:47;10.25;;;8.05;;
21089;SDS011;10703;51.020;6.128;2022-08-19T11:47:13;12.15;;;8.32;;
21089;SDS011;10703;51.020;6.128;2022-08-19T11:49:40;12.25;;;8.13;;
21089;SDS011;10703;51.020;6.128;2022-08-19T11:52:08;12.25;;;8.10;;
21089;SDS011;10703;51.020;6.128;2022-08-19T11:54:35;14.05;;;9.13;;
21089;SDS011;10703;51.020;6.128;2022-08-19T11:57:02;13.13;;;8.38;;
21089;SDS011;10703;51.020;6.128;2022-08-19T11:59:29;13.40;;;8.75;;
21089;SDS011;10703;51.020;6.128;2022-08-19T12:01:56;10.90;;;8.15;;
21089;SDS011;10703;51.020;6.128;2022-08-19T12:04:23;12.30;;;8.93;;
21089;SDS011;10703;51.020;6.128;2022-08-19T12:06:50;10.73;;;6.45;;
21089;SDS011;10703;51.020;6.128;2022-08-19T12:09:17;8.88;;;6.40;;
21089;SDS011;10703;51.020;6.128;2022-08-19T12:11:44;12.00;;;6.65;;
21089;SDS011;10703;51.020;6.128;2022-08-19T12:14:12;7.35;;;4.88;;
21089;SDS011;10703;51.020;6.128;2022-08-19T12:16:40;8.55;;;5.03;;
21089;SDS011;10703;51.020;6.128;2022-08-19T12:19:16;10.27;;;5.15;;
21089;SDS011;10703;51.020;6.128;2022-08-19T12:21:48;8.77;;;5.05;;
21089;SDS011;10703;51.020;6.128;2022-08-19T12:24:14;6.93;;;4.75;;
21089;SDS011;10703;51.020;6.128;2022-08-19T12:26:41;7.30;;;3.88;;
21089;SDS011;10703;51.020;6.128;2022-08-19T12:29:18;6.40;;;4.38;;
21089;SDS011;10703;51.020;6.128;2022-08-19T12:31:49;9.23;;;4.72;;
21089;SDS011;10703;51.020;6.128;2022-08-19T12:34:16;5.53;;;4.25;;
21089;SDS011;10703;51.020;6.128;2022-08-19T12:36:43;6.55;;;4.30;;
21089;SDS011;10703;51.020;6.128;2022-08-19T12:39:10;5.10;;;4.30;;
21089;SDS011;10703;51.020;6.128;2022-08-19T12:41:38;6.35;;;4.55;;
21089;SDS011;10703;51.020;6.128;2022-08-19T12:44:19;7.95;;;5.18;;
21089;SDS011;10703;51.020;6.128;2022-08-19T12:46:54;7.60;;;3.85;;
21089;SDS011;10703;51.020;6.128;2022-08-19T12:49:20;7.82;;;4.53;;
21089;SDS011;10703;51.020;6.128;2022-08-19T12:52:08;6.00;;;4.32;;
21089;SDS011;10703;51.020;6.128;2022-08-19T12:54:35;7.53;;;4.00;;
21089;SDS011;10703;51.020;6.128;2022-08-19T12:57:06;5.65;;;2.70;;
21089;SDS011;10703;51.020;6.128;2022-08-19T12:59:36;6.57;;;2.90;;
21089;SDS011;10703;51.020;6.128;2022-08-19T13:02:04;3.05;;;2.03;;
21089;SDS011;10703;51.020;6.128;2022-08-19T13:04:32;5.13;;;2.33;;
21089;SDS011;10703;51.020;6.128;2022-08-19T13:07:06;4.25;;;2.25;;
21089;SDS011;10703;51.020;6.128;2022-08-19T13:09:34;7.13;;;2.75;;
21089;SDS011;10703;51.020;6.128;2022-08-19T13:12:02;3.30;;;2.17;;
21089;SDS011;10703;51.020;6.128;2022-08-19T13:14:30;7.68;;;2.58;;
21089;SDS011;10703;51.020;6.128;2022-08-19T13:16:58;3.17;;;2.40;;
21089;SDS011;10703;51.020;6.128;2022-08-19T13:19:25;6.20;;;2.55;;
21089;SDS011;10703;51.020;6.128;2022-08-19T13:21:52;4.85;;;2.30;;
21089;SDS011;10703;51.020;6.128;2022-08-19T13:24:25;3.38;;;2.00;;
21089;SDS011;10703;51.020;6.128;2022-08-19T13:26:59;3.15;;;2.13;;
21089;SDS011;10703;51.020;6.128;2022-08-19T13:29:26;4.82;;;2.83;;
21089;SDS011;10703;51.020;6.128;2022-08-19T13:32:11;4.03;;;2.00;;
21089;SDS011;10703;51.020;6.128;2022-08-19T13:34:58;5.32;;;2.00;;
21089;SDS011;10703;51.020;6.128;2022-08-19T13:37:24;5.70;;;2.38;;
21089;SDS011;10703;51.020;6.128;2022-08-19T13:40:10;4.50;;;2.20;;
21089;SDS011;10703;51.020;6.128;2022-08-19T13:42:45;2.92;;;2.00;;
21089;SDS011;10703;51.020;6.128;2022-08-19T13:45:14;5.70;;;2.00;;
21089;SDS011;10703;51.020;6.128;2022-08-19T13:47:45;5.22;;;2.33;;
21089;SDS011;10703;51.020;6.128;2022-08-19T13:50:14;2.88;;;1.67;;
21089;SDS011;10703;51.020;6.128;2022-08-19T13:52:43;3.03;;;1.60;;
21089;SDS011;10703;51.020;6.128;2022-08-19T13:55:11;3.83;;;1.75;;
21089;SDS011;10703;51.020;6.128;2022-08-19T13:57:38;2.58;;;1.50;;
21089;SDS011;10703;51.020;6.128;2022-08-19T14:00:06;1.50;;;1.08;;
21089;SDS011;10703;51.020;6.128;2022-08-19T14:02:37;1.70;;;1.00;;
21089;SDS011;10703;51.020;6.128;2022-08-19T14:05:05;1.58;;;1.00;;
21089;SDS011;10703;51.020;6.128;2022-08-19T14:07:35;2.58;;;1.25;;
21089;SDS011;10703;51.020;6.128;2022-08-19T14:10:05;3.47;;;1.38;;
21089;SDS011;10703;51.020;6.128;2022-08-19T14:12:33;2.70;;;1.20;;
21089;SDS011;10703;51.020;6.128;2022-08-19T14:15:04;2.55;;;1.20;;
21089;SDS011;10703;51.020;6.128;2022-08-19T14:17:32;4.25;;;1.70;;
21089;SDS011;10703;51.020;6.128;2022-08-19T14:20:01;2.67;;;1.30;;
21089;SDS011;10703;51.020;6.128;2022-08-19T14:22:36;3.78;;;1.55;;
21089;SDS011;10703;51.020;6.128;2022-08-19T14:25:06;4.30;;;1.40;;
21089;SDS011;10703;51.020;6.128;2022-08-19T14:27:35;3.90;;;1.48;;
21089;SDS011;10703;51.020;6.128;2022-08-19T14:30:06;2.03;;;1.20;;
21089;SDS011;10703;51.020;6.128;2022-08-19T14:32:34;3.40;;;1.33;;
21089;SDS011;10703;51.020;6.128;2022-08-19T14:35:02;3.47;;;1.58;;
21089;SDS011;10703;51.020;6.128;2022-08-19T14:37:29;3.63;;;1.60;;
21089;SDS011;10703;51.020;6.128;2022-08-19T14:39:55;5.88;;;1.40;;
21089;SDS011;10703;51.020;6.128;2022-08-19T14:42:22;1.88;;;1.55;;
21089;SDS011;10703;51.020;6.128;2022-08-19T14:44:49;5.70;;;1.63;;
21089;SDS011;10703;51.020;6.128;2022-08-19T14:47:16;3.58;;;1.48;;
21089;SDS011;10703;51.020;6.128;2022-08-19T14:49:44;3.92;;;1.58;;
21089;SDS011;10703;51.020;6.128;2022-08-19T14:52:15;2.30;;;1.30;;
21089;SDS011;10703;51.020;6.128;2022-08-19T14:54:42;2.55;;;1.70;;
21089;SDS011;10703;51.020;6.128;2022-08-19T14:57:11;3.65;;;1.60;;
21089;SDS011;10703;51.020;6.128;2022-08-19T14:59:38;2.92;;;1.70;;